METAR Data
IDs: Format: Raw Decoded Include TAF

Data at: 1723 UTC 16 Oct 2021

KJCT 161651Z AUTO 07012G23KT 10SM CLR 19/M02 A3045 RMK AO2 SLP284 T01941022
KJCT 161551Z AUTO 10009KT 10SM CLR 17/03 A3045 RMK AO2 SLP286 T01720028
KJCT 161451Z AUTO 00000KT 10SM CLR 14/05 A3045 RMK AO2 SLP287 T01440050 53024
KJCT 161351Z AUTO 28003KT 9SM CLR 11/06 A3043 RMK AO2 SLP282 T01060056
KJCT 161251Z AUTO 00000KT 10SM CLR 08/04 A3039 RMK AO2 SLP271 T00780044
KJCT 161151Z AUTO 00000KT 10SM CLR 09/04 A3038 RMK AO2 SLP263 T00940044 10144 20078 53016
KJCT 161051Z AUTO 00000KT 10SM CLR 09/05 A3036 RMK AO2 SLP255 T00890050
KJCT 160951Z AUTO 00000KT 10SM CLR 11/06 A3034 RMK AO2 SLP248 T01060056
KJCT 160851Z AUTO 03004KT 10SM CLR 11/06 A3033 RMK AO2 SLP242 T01110056 50001
KJCT 160751Z AUTO 35004KT 10SM CLR 12/06 A3034 RMK AO2 SLP246 T01220056
KJCT 160651Z AUTO 02006KT 10SM CLR 14/06 A3033 RMK AO2 SLP242 T01390056
KJCT 160551Z AUTO 02006KT 10SM CLR 14/06 A3032 RMK AO2 SLP239 T01440056 10217 20144 402720144 51027
KJCT 160451Z AUTO 04008KT 10SM CLR 16/06 A3031 RMK AO2 SLP234 T01610056
KJCT 160351Z AUTO 02006KT 10SM CLR 17/06 A3027 RMK AO2 SLP220 T01670061
KJCT 160251Z AUTO 02006KT 10SM CLR 17/07 A3024 RMK AO2 SLP210 T01720072 53026
KJCT 160151Z AUTO 36005KT 10SM CLR 18/08 A3021 RMK AO2 SLP201 T01830078
KJCT 160051Z AUTO 35004KT 10SM CLR 19/08 A3018 RMK AO2 SLP189 T01940078
KJCT 152351Z AUTO 36010KT 10SM CLR 22/07 A3016 RMK AO2 SLP180 T02170072 10256 20217 53016
KJCT 152251Z AUTO 36012G21KT 10SM CLR 23/08 A3014 RMK AO2 SLP173 T02330078
KJCT 152151Z AUTO 01013G22KT 10SM CLR 24/09 A3011 RMK AO2 SLP165 T02440094
KJCT 152051Z AUTO 03014G22KT 10SM CLR 25/10 A3011 RMK AO2 SLP161 T02500100 53002
KJCT 151951Z AUTO 35010G20KT 10SM CLR 25/10 A3010 RMK AO2 SLP159 T02500100
KJCT 151851Z AUTO 01014G23KT 10SM CLR 26/11 A3010 RMK AO2 SLP160 T02560111
KJCT 151751Z AUTO 01017G23KT 10SM CLR 25/10 A3010 RMK AO2 SLP160 T02500100 10272 20217 51020
KJCT 151651Z AUTO 36013KT 10SM CLR 27/12 A3008 RMK AO2 SLP152 T02670117
KJCT 151551Z AUTO 33010KT 10SM FEW023 26/12 A3007 RMK AO2 SLP146 T02610122
KJCT 151502Z AUTO 29006KT 8SM SCT015 BKN070 26/20 A3005 RMK AO2 T02560200
KJCT 151451Z AUTO 24004KT 8SM BKN015 25/21 A3004 RMK AO2 SLP137 T02500206 53017
KJCT 151420Z AUTO 23005KT 7SM SCT012 24/20 A3003 RMK AO2 T02390200
KJCT 151351Z AUTO 24005KT 6SM HZ OVC010 23/20 A3002 RMK AO2 SLP130 T02280200
KJCT 151251Z AUTO 24004KT 7SM OVC012 23/20 A2998 RMK AO2 SLP118 T02280200
KJCT 151206Z AUTO 28004KT 7SM OVC015 22/20 A2998 RMK AO2 T02170200
KJCT 151151Z AUTO 28005KT 5SM BR OVC014 22/20 A2998 RMK AO2 SLP114 T02170200 10217 20183 53017
KJCT 151051Z AUTO 29003KT 7SM OVC013 21/19 A2995 RMK AO2 SLP104 T02110194
KJCT 150951Z AUTO 00000KT 7SM OVC012 21/19 A2993 RMK AO2 SLP099 T02110194
KJCT 150917Z AUTO 32004KT 8SM OVC010 21/19 A2993 RMK AO2 T02060189
KJCT 150851Z AUTO 28003KT 8SM OVC007 21/19 A2992 RMK AO2 CIG 006V011 SLP096 T02110189 53003
KJCT 150803Z AUTO 00000KT 8SM BKN009 19/17 A2992 RMK AO2 T01890172
KJCT 150751Z AUTO VRB03KT 7SM FEW011 19/17 A2992 RMK AO2 SLP096 T01890172
KJCT 150651Z AUTO 00000KT 9SM CLR 19/18 A2991 RMK AO2 SLP094 T01940178
KJCT 150551Z AUTO 00000KT 10SM CLR 21/18 A2991 RMK AO2 SLP096 T02060183 10289 20200 403110172 51006